Time;durP1;ratioP1;P1;durP2;ratioP2;P2;SDS_P1;SDS_P2;PMS_P1;PMS_P2;Temp;Humidity;BMP_temperature;BMP_pressure;BME280_temperature;BME280_humidity;BME280_pressure;Samples;Min_cycle;Max_cycle;Signal;HPM_P1;HPM_P2
2023/02/18 00:01:28;;;;;;;;;;;;;;;;;;5094339;28;2274;-41
2023/02/18 00:03:56;;;;;;;;;;;;;;;;;;5094293;28;1604;-45
2023/02/18 00:06:25;;;;;;;;;;;;;;;;;;5076370;28;1638;-43
2023/02/18 00:08:52;;;;;;;;;;;;;;;;;;5073696;28;1864;-42
2023/02/18 00:11:20;;;;;;;;;;;;;;;;;;5056112;28;2043;-43
2023/02/18 00:14:07;;;;;;;;;;;;;;;;;;5073944;28;1842;-40
2023/02/18 00:16:34;;;;;;;;;;;;;;;;;;5073729;28;1491;-43
2023/02/18 00:19:02;;;;;;;;;;;;;;;;;;5073490;28;1945;-39
2023/02/18 00:21:31;;;;;;;;;;;;;;;;;;5073771;28;2219;-43
2023/02/18 00:23:58;;;;;;;;;;;;;;;;;;5073610;28;2199;-42
2023/02/18 00:26:25;;;;;;;;;;;;;;;;;;5073631;28;1693;-47
2023/02/18 00:28:53;;;;;;;;;;;;;;;;;;5073566;28;1875;-42
2023/02/18 00:31:22;;;;;;;;;;;;;;;;;;5073571;28;1782;-40
2023/02/18 00:33:50;;;;;;;;;;;;;;;;;;5055345;28;1880;-44
2023/02/18 00:36:20;;;;;;;;;;;;;;;;;;5073598;28;1941;-41
2023/02/18 00:38:48;;;;;;;;;;;;;;;;;;5073322;28;1964;-43
2023/02/18 00:41:16;;;;;;;;;;;;;;;;;;5055419;28;1959;-41
2023/02/18 00:43:45;;;;;;;;;;;;;;;;;;5073215;28;2125;-44
2023/02/18 00:46:15;;;;;;;;;;;;;;;;;;5072954;28;2277;-42
2023/02/18 00:48:42;;;;;;;;;;;;;;;;;;5073059;28;2389;-43
2023/02/18 00:51:09;;;;;;;;;;;;;;;;;;5073088;28;1839;-43
2023/02/18 00:53:37;;;;;;;;;;;;;;;;;;5072905;28;1408;-39
2023/02/18 00:56:05;;;;;;;;;;;;;;;;;;5072787;28;2097;-43
2023/02/18 00:58:34;;;;;;;;;;;;;;;;;;5072493;28;2031;-39
2023/02/18 01:01:04;;;;;;;;;;;;;;;;;;5090399;28;2030;-47
2023/02/18 01:03:33;;;;;;;;;;;;;;;;;;5074734;28;1935;-39
2023/02/18 01:06:01;;;;;;;;;;;;;;;;;;5078404;28;2055;-42
2023/02/18 01:08:28;;;;;;;;;;;;;;;;;;5054919;28;1834;-41
2023/02/18 01:10:58;;;;;;;;;;;;;;;;;;5072717;28;1967;-39
2023/02/18 01:13:26;;;;;;;;;;;;;;;;;;5072564;28;1845;-41
2023/02/18 01:15:53;;;;;;;;;;;;;;;;;;5072929;28;1994;-43
2023/02/18 01:18:21;;;;;;;;;;;;;;;;;;5072792;28;1908;-43
2023/02/18 01:20:48;;;;;;;;;;;;;;;;;;5072472;28;2043;-47
2023/02/18 01:23:15;;;;;;;;;;;;;;;;;;5054478;28;1881;-44
2023/02/18 01:25:42;;;;;;;;;;;;;;;;;;5072265;28;1975;-42
2023/02/18 01:28:11;;;;;;;;;;;;;;;;;;5054440;28;2414;-45
2023/02/18 01:30:38;;;;;;;;;;;;;;;;;;5054117;28;1875;-41
2023/02/18 01:33:06;;;;;;;;;;;;;;;;;;5054561;28;1967;-41
2023/02/18 01:35:33;;;;;;;;;;;;;;;;;;5072002;28;1724;-40
2023/02/18 01:38:01;;;;;;;;;;;;;;;;;;5072258;28;2340;-43
2023/02/18 01:40:29;;;;;;;;;;;;;;;;;;5053920;28;1910;-42
2023/02/18 01:42:56;;;;;;;;;;;;;;;;;;5054255;28;2083;-43
2023/02/18 01:45:32;;;;;;;;;;;;;;;;;;5072218;28;1716;-43
2023/02/18 01:48:04;;;;;;;;;;;;;;;;;;5071923;28;1609;-46
2023/02/18 01:50:37;;;;;;;;;;;;;;;;;;5053915;28;2116;-42
2023/02/18 01:53:05;;;;;;;;;;;;;;;;;;5071972;28;1972;-42
2023/02/18 01:55:33;;;;;;;;;;;;;;;;;;5054391;28;2231;-42
2023/02/18 01:58:00;;;;;;;;;;;;;;;;;;5054003;28;2239;-41
2023/02/18 02:00:28;;;;;;;;;;;;;;;;;;5053834;28;1978;-44
2023/02/18 02:02:55;;;;;;;;;;;;;;;;;;5071466;28;2014;-42
2023/02/18 02:05:23;;;;;;;;;;;;;;;;;;5080988;28;1776;-41
2023/02/18 02:07:51;;;;;;;;;;;;;;;;;;5091754;28;2204;-44
2023/02/18 02:10:19;;;;;;;;;;;;;;;;;;5091401;28;1852;-43
2023/02/18 02:12:58;;;;;;;;;;;;;;;;;;5091828;28;1652;-42
2023/02/18 02:15:48;;;;;;;;;;;;;;;;;;5092014;28;2152;-43
2023/02/18 02:18:27;;;;;;;;;;;;;;;;;;5091764;28;1828;-40
2023/02/18 02:21:00;;;;;;;;;;;;;;;;;;5090777;28;1917;-42
2023/02/18 02:23:27;;;;;;;;;;;;;;;;;;5071512;28;1682;-42
2023/02/18 02:25:58;;;;;;;;;;;;;;;;;;5071612;28;2059;-44
2023/02/18 02:28:33;;;;;;;;;;;;;;;;;;5071340;28;1789;-41
2023/02/18 02:31:13;;;;;;;;;;;;;;;;;;5071396;28;1727;-42
2023/02/18 02:33:40;;;;;;;;;;;;;;;;;;5053766;28;2067;-41
2023/02/18 02:36:08;;;;;;;;;;;;;;;;;;5071183;28;2091;-40
2023/02/18 02:38:47;;;;;;;;;;;;;;;;;;5071158;28;2392;-40
2023/02/18 02:41:26;;;;;;;;;;;;;;;;;;5053257;28;1975;-47
2023/02/18 02:44:00;;;;;;;;;;;;;;;;;;5053067;28;1647;-43
2023/02/18 02:46:31;;;;;;;;;;;;;;;;;;5071269;28;1854;-45
2023/02/18 02:49:01;;;;;;;;;;;;;;;;;;5036950;28;2151;-41
2023/02/18 02:51:31;;;;;;;;;;;;;;;;;;5071248;28;2052;-45
2023/02/18 02:54:10;;;;;;;;;;;;;;;;;;5071124;28;2125;-44
2023/02/18 02:56:38;;;;;;;;;;;;;;;;;;5070911;28;1285;-45
2023/02/18 02:59:07;;;;;;;;;;;;;;;;;;5071082;28;2082;-40
2023/02/18 03:01:58;;;;;;;;;;;;;;;;;;5052701;28;1955;-42
2023/02/18 03:04:28;;;;;;;;;;;;;;;;;;5071990;28;2227;-43
2023/02/18 03:07:15;;;;;;;;;;;;;;;;;;5072960;28;2215;-47
2023/02/18 03:09:50;;;;;;;;;;;;;;;;;;5091148;28;2045;-42
2023/02/18 03:12:27;;;;;;;;;;;;;;;;;;5072812;28;1844;-43
2023/02/18 03:14:59;;;;;;;;;;;;;;;;;;5091027;28;1866;-47
2023/02/18 03:17:33;;;;;;;;;;;;;;;;;;5090944;28;2046;-44
2023/02/18 03:20:05;;;;;;;;;;;;;;;;;;5073913;28;1980;-45
2023/02/18 03:22:36;;;;;;;;;;;;;;;;;;5076666;28;1980;-38
2023/02/18 03:25:04;;;;;;;;;;;;;;;;;;5076864;28;1721;-43
2023/02/18 03:27:52;;;;;;;;;;;;;;;;;;5076899;28;1737;-44
2023/02/18 03:30:23;;;;;;;;;;;;;;;;;;5094936;28;1859;-42
2023/02/18 03:32:55;;;;;;;;;;;;;;;;;;5076374;28;2160;-42
2023/02/18 03:35:23;;;;;;;;;;;;;;;;;;5076531;28;1277;-43
2023/02/18 03:37:53;;;;;;;;;;;;;;;;;;5076506;28;1793;-41
2023/02/18 03:40:21;;;;;;;;;;;;;;;;;;5094771;28;2152;-40
2023/02/18 03:42:48;;;;;;;;;;;;;;;;;;5076788;28;2384;-42
2023/02/18 03:45:15;;;;;;;;;;;;;;;;;;5076787;28;2796;-43
2023/02/18 03:47:42;;;;;;;;;;;;;;;;;;5076265;28;1743;-43
2023/02/18 03:50:10;;;;;;;;;;;;;;;;;;5094564;28;1780;-43
2023/02/18 03:52:37;;;;;;;;;;;;;;;;;;5076170;28;1760;-39
2023/02/18 03:55:04;;;;;;;;;;;;;;;;;;5094514;28;2145;-40
2023/02/18 03:57:31;;;;;;;;;;;;;;;;;;5094715;28;2383;-41
2023/02/18 04:00:01;;;;;;;;;;;;;;;;;;5094480;28;1662;-42
2023/02/18 04:02:39;;;;;;;;;;;;;;;;;;5094351;28;1972;-45
2023/02/18 04:05:06;;;;;;;;;;;;;;;;;;5087341;28;2046;-44
2023/02/18 04:07:33;;;;;;;;;;;;;;;;;;5074042;28;2380;-39
2023/02/18 04:10:01;;;;;;;;;;;;;;;;;;5074339;28;1756;-43
2023/02/18 04:12:28;;;;;;;;;;;;;;;;;;5073779;28;2160;-44
2023/02/18 04:14:55;;;;;;;;;;;;;;;;;;5073728;28;2020;-40
2023/02/18 04:17:22;;;;;;;;;;;;;;;;;;5073977;28;1359;-45
2023/02/18 04:19:49;;;;;;;;;;;;;;;;;;5073573;28;1915;-41
2023/02/18 04:22:16;;;;;;;;;;;;;;;;;;5073805;28;1967;-42
2023/02/18 04:24:43;;;;;;;;;;;;;;;;;;5073646;28;1950;-41
2023/02/18 04:27:11;;;;;;;;;;;;;;;;;;5072946;28;2054;-43
2023/02/18 04:29:38;;;;;;;;;;;;;;;;;;5073723;28;2217;-47
2023/02/18 04:32:05;;;;;;;;;;;;;;;;;;5072621;28;1784;-41
2023/02/18 04:34:32;;;;;;;;;;;;;;;;;;5073553;28;2210;-43
2023/02/18 04:36:59;;;;;;;;;;;;;;;;;;5073631;28;1811;-43
2023/02/18 04:39:26;;;;;;;;;;;;;;;;;;5073195;28;2026;-45
2023/02/18 04:41:53;;;;;;;;;;;;;;;;;;5073422;28;1918;-42
2023/02/18 04:44:21;;;;;;;;;;;;;;;;;;5073362;28;2077;-41
2023/02/18 04:46:48;;;;;;;;;;;;;;;;;;5073309;28;1526;-42
2023/02/18 04:49:15;;;;;;;;;;;;;;;;;;5073270;28;1743;-42
2023/02/18 04:51:42;;;;;;;;;;;;;;;;;;5073122;28;2130;-43
2023/02/18 04:54:09;;;;;;;;;;;;;;;;;;5073398;28;2099;-43
2023/02/18 04:56:36;;;;;;;;;;;;;;;;;;5073024;28;2018;-40
2023/02/18 04:59:04;;;;;;;;;;;;;;;;;;5073161;28;1538;-41
2023/02/18 05:01:31;;;;;;;;;;;;;;;;;;5073085;28;2140;-42
2023/02/18 05:03:58;;;;;;;;;;;;;;;;;;5073114;28;1773;-42
2023/02/18 05:06:25;;;;;;;;;;;;;;;;;;5090873;28;1769;-40
2023/02/18 05:08:52;;;;;;;;;;;;;;;;;;5092787;28;1781;-42
2023/02/18 05:11:19;;;;;;;;;;;;;;;;;;5093040;28;1733;-42
2023/02/18 05:13:47;;;;;;;;;;;;;;;;;;5074779;28;1993;-46
2023/02/18 05:16:14;;;;;;;;;;;;;;;;;;5092868;28;2099;-39
2023/02/18 05:18:42;;;;;;;;;;;;;;;;;;5092798;28;1673;-41
2023/02/18 05:21:10;;;;;;;;;;;;;;;;;;5092590;28;2053;-47
2023/02/18 05:23:38;;;;;;;;;;;;;;;;;;5092674;28;1783;-43
2023/02/18 05:26:05;;;;;;;;;;;;;;;;;;5092707;28;1690;-40
2023/02/18 05:28:32;;;;;;;;;;;;;;;;;;5080534;28;1830;-43
2023/02/18 05:31:00;;;;;;;;;;;;;;;;;;5073000;28;2006;-44
2023/02/18 05:33:27;;;;;;;;;;;;;;;;;;5072353;28;1744;-40
2023/02/18 05:35:54;;;;;;;;;;;;;;;;;;5072261;28;1866;-41
2023/02/18 05:38:22;;;;;;;;;;;;;;;;;;5072369;28;1860;-45
2023/02/18 05:40:49;;;;;;;;;;;;;;;;;;5072300;28;1916;-41
2023/02/18 05:43:16;;;;;;;;;;;;;;;;;;5071345;28;2101;-43
2023/02/18 05:45:43;;;;;;;;;;;;;;;;;;5071992;28;1610;-43
2023/02/18 05:48:10;;;;;;;;;;;;;;;;;;5054396;28;1771;-42
2023/02/18 05:50:37;;;;;;;;;;;;;;;;;;5053899;28;1953;-47
2023/02/18 05:53:05;;;;;;;;;;;;;;;;;;5072264;28;2014;-39
2023/02/18 05:55:36;;;;;;;;;;;;;;;;;;5072146;28;1805;-41
2023/02/18 05:58:04;;;;;;;;;;;;;;;;;;5072447;28;1961;-41
2023/02/18 06:00:31;;;;;;;;;;;;;;;;;;5071795;28;1924;-40
2023/02/18 06:02:58;;;;;;;;;;;;;;;;;;5071484;28;1882;-41
2023/02/18 06:05:26;;;;;;;;;;;;;;;;;;5081379;28;1811;-41
2023/02/18 06:07:53;;;;;;;;;;;;;;;;;;5073675;28;2053;-41
2023/02/18 06:10:22;;;;;;;;;;;;;;;;;;5092035;28;2225;-47
2023/02/18 06:12:49;;;;;;;;;;;;;;;;;;5091885;28;1867;-41
2023/02/18 06:15:16;;;;;;;;;;;;;;;;;;5091854;28;1995;-40
2023/02/18 06:17:43;;;;;;;;;;;;;;;;;;5091892;28;2012;-44
2023/02/18 06:20:11;;;;;;;;;;;;;;;;;;5091732;28;1388;-42
2023/02/18 06:22:38;;;;;;;;;;;;;;;;;;5091656;28;1914;-40
2023/02/18 06:25:05;;;;;;;;;;;;;;;;;;5091822;28;1906;-41
2023/02/18 06:27:34;;;;;;;;;;;;;;;;;;5091549;28;2161;-41
2023/02/18 06:30:02;;;;;;;;;;;;;;;;;;5075116;28;2144;-43
2023/02/18 06:32:29;;;;;;;;;;;;;;;;;;5071529;28;1818;-42
2023/02/18 06:34:56;;;;;;;;;;;;;;;;;;5071063;28;2261;-42
2023/02/18 06:37:23;;;;;;;;;;;;;;;;;;5071371;28;2077;-42
2023/02/18 06:39:50;;;;;;;;;;;;;;;;;;5069788;28;2024;-42
2023/02/18 06:42:18;;;;;;;;;;;;;;;;;;5077845;28;1915;-42
2023/02/18 06:44:45;;;;;;;;;;;;;;;;;;5070262;28;1646;-39
2023/02/18 06:47:12;;;;;;;;;;;;;;;;;;5071204;28;1680;-41
2023/02/18 06:49:39;;;;;;;;;;;;;;;;;;5071218;28;1990;-39
2023/02/18 06:52:06;;;;;;;;;;;;;;;;;;5071162;28;1685;-40
2023/02/18 06:54:33;;;;;;;;;;;;;;;;;;5070873;28;2154;-40
2023/02/18 06:57:01;;;;;;;;;;;;;;;;;;5071353;28;1828;-41
2023/02/18 06:59:28;;;;;;;;;;;;;;;;;;5071042;28;1795;-41
2023/02/18 07:01:56;;;;;;;;;;;;;;;;;;5053088;28;1895;-39
2023/02/18 07:04:23;;;;;;;;;;;;;;;;;;5071076;28;1647;-40
2023/02/18 07:06:50;;;;;;;;;;;;;;;;;;5070888;28;1792;-40
2023/02/18 07:09:18;;;;;;;;;;;;;;;;;;5071067;28;2014;-41
2023/02/18 07:11:45;;;;;;;;;;;;;;;;;;5070774;28;1755;-42
2023/02/18 07:14:12;;;;;;;;;;;;;;;;;;5070913;28;1648;-38
2023/02/18 07:16:39;;;;;;;;;;;;;;;;;;5070884;28;1704;-44
2023/02/18 07:19:06;;;;;;;;;;;;;;;;;;5071018;28;2090;-42
2023/02/18 07:21:33;;;;;;;;;;;;;;;;;;5070226;28;1916;-43
2023/02/18 07:24:00;;;;;;;;;;;;;;;;;;5071055;28;1840;-42
2023/02/18 07:26:28;;;;;;;;;;;;;;;;;;5070742;28;1941;-40
2023/02/18 07:28:55;;;;;;;;;;;;;;;;;;5070841;28;1765;-44
2023/02/18 07:31:22;;;;;;;;;;;;;;;;;;5070841;28;2234;-41
2023/02/18 07:33:49;;;;;;;;;;;;;;;;;;5070709;28;1946;-40
2023/02/18 07:36:16;;;;;;;;;;;;;;;;;;5070711;28;2022;-41
2023/02/18 07:38:43;;;;;;;;;;;;;;;;;;5070560;28;2086;-41
2023/02/18 07:41:16;;;;;;;;;;;;;;;;;;5070570;28;1942;-44
2023/02/18 07:43:44;;;;;;;;;;;;;;;;;;5070623;28;1870;-43
2023/02/18 07:46:11;;;;;;;;;;;;;;;;;;5070687;28;2092;-42
2023/02/18 07:48:38;;;;;;;;;;;;;;;;;;5070416;28;1687;-39
2023/02/18 07:51:06;;;;;;;;;;;;;;;;;;5070719;28;2279;-39
2023/02/18 07:53:33;;;;;;;;;;;;;;;;;;5070659;28;1694;-42
2023/02/18 07:56:01;;;;;;;;;;;;;;;;;;5071037;28;1577;-43
2023/02/18 07:58:29;;;;;;;;;;;;;;;;;;5090822;28;1953;-43
2023/02/18 08:00:57;;;;;;;;;;;;;;;;;;5090558;28;1946;-43
2023/02/18 08:03:26;;;;;;;;;;;;;;;;;;5090732;28;1965;-41
2023/02/18 08:05:54;;;;;;;;;;;;;;;;;;5083657;28;1826;-39
2023/02/18 08:08:22;;;;;;;;;;;;;;;;;;5093439;28;1747;-41
2023/02/18 08:10:50;;;;;;;;;;;;;;;;;;5094117;28;1659;-41
2023/02/18 08:13:17;;;;;;;;;;;;;;;;;;5094044;28;2081;-40
2023/02/18 08:15:47;;;;;;;;;;;;;;;;;;5094125;28;1999;-41
2023/02/18 08:18:16;;;;;;;;;;;;;;;;;;5094028;28;2140;-41
2023/02/18 08:20:44;;;;;;;;;;;;;;;;;;5093828;28;1706;-40
2023/02/18 08:23:11;;;;;;;;;;;;;;;;;;5093915;28;1906;-38
2023/02/18 08:25:38;;;;;;;;;;;;;;;;;;5093962;28;1849;-40
2023/02/18 08:28:05;;;;;;;;;;;;;;;;;;5094258;28;1628;-39
2023/02/18 08:30:32;;;;;;;;;;;;;;;;;;5093927;28;1683;-40
2023/02/18 08:32:59;;;;;;;;;;;;;;;;;;5093516;28;2076;-43
2023/02/18 08:35:26;;;;;;;;;;;;;;;;;;5093623;28;2355;-45
2023/02/18 08:37:54;;;;;;;;;;;;;;;;;;5093564;28;1826;-40
2023/02/18 08:40:22;;;;;;;;;;;;;;;;;;5093492;28;1966;-44
2023/02/18 08:42:49;;;;;;;;;;;;;;;;;;5093359;28;1904;-47
2023/02/18 08:45:16;;;;;;;;;;;;;;;;;;5093396;28;2167;-43
2023/02/18 08:47:43;;;;;;;;;;;;;;;;;;5093411;28;1687;-41
2023/02/18 08:50:30;;;;;;;;;;;;;;;;;;5093429;28;2167;-45
2023/02/18 08:53:00;;;;;;;;;;;;;;;;;;5093277;28;1668;-42
2023/02/18 08:55:28;;;;;;;;;;;;;;;;;;5093441;28;2041;-41
2023/02/18 08:57:55;;;;;;;;;;;;;;;;;;5093170;28;1946;-40
2023/02/18 09:00:22;;;;;;;;;;;;;;;;;;5093156;28;2292;-44
2023/02/18 09:02:49;;;;;;;;;;;;;;;;;;5093073;28;1979;-41
2023/02/18 09:05:16;;;;;;;;;;;;;;;;;;5084654;28;1858;-44
2023/02/18 09:07:43;;;;;;;;;;;;;;;;;;5072795;28;2116;-45
2023/02/18 09:10:11;;;;;;;;;;;;;;;;;;5072763;28;1236;-39
2023/02/18 09:12:38;;;;;;;;;;;;;;;;;;5072410;28;1775;-38
2023/02/18 09:15:05;;;;;;;;;;;;;;;;;;5072973;28;2080;-39
2023/02/18 09:17:32;;;;;;;;;;;;;;;;;;5072609;28;1772;-42
2023/02/18 09:20:00;;;;;;;;;;;;;;;;;;5072686;28;2071;-42
2023/02/18 09:22:27;;;;;;;;;;;;;;;;;;5072811;28;2126;-42
2023/02/18 09:24:54;;;;;;;;;;;;;;;;;;5076722;28;1983;-43
2023/02/18 09:27:21;;;;;;;;;;;;;;;;;;5092441;28;2062;-42
2023/02/18 09:29:49;;;;;;;;;;;;;;;;;;5092747;28;2079;-40
2023/02/18 09:32:17;;;;;;;;;;;;;;;;;;5092568;28;1994;-39
2023/02/18 09:34:59;;;;;;;;;;;;;;;;;;5092330;28;1762;-44
2023/02/18 09:37:27;;;;;;;;;;;;;;;;;;5092304;28;1975;-40
2023/02/18 09:39:54;;;;;;;;;;;;;;;;;;5074165;28;1685;-38
2023/02/18 09:42:26;;;;;;;;;;;;;;;;;;5092226;28;1906;-41
2023/02/18 09:44:55;;;;;;;;;;;;;;;;;;5091707;28;2156;-40
2023/02/18 09:47:40;;;;;;;;;;;;;;;;;;5092356;28;2149;-41
2023/02/18 09:50:27;;;;;;;;;;;;;;;;;;5091946;28;1681;-39
2023/02/18 09:52:57;;;;;;;;;;;;;;;;;;5092258;28;1867;-39
2023/02/18 09:55:27;;;;;;;;;;;;;;;;;;5092200;28;2131;-42
2023/02/18 09:58:14;;;;;;;;;;;;;;;;;;5091975;28;2210;-38
2023/02/18 10:00:43;;;;;;;;;;;;;;;;;;5091659;28;1698;-42
2023/02/18 10:03:19;;;;;;;;;;;;;;;;;;5083402;28;1910;-42
2023/02/18 10:05:54;;;;;;;;;;;;;;;;;;5084092;28;2153;-41
2023/02/18 10:08:26;;;;;;;;;;;;;;;;;;5073962;28;1805;-42
2023/02/18 10:10:53;;;;;;;;;;;;;;;;;;5091527;28;1791;-39
2023/02/18 10:13:22;;;;;;;;;;;;;;;;;;5091744;28;1797;-40
2023/02/18 10:15:50;;;;;;;;;;;;;;;;;;5091818;28;1812;-39
2023/02/18 10:18:17;;;;;;;;;;;;;;;;;;5091756;28;2048;-41
2023/02/18 10:20:44;;;;;;;;;;;;;;;;;;5091717;28;1531;-40
2023/02/18 10:23:12;;;;;;;;;;;;;;;;;;5091746;28;2173;-46
2023/02/18 10:25:42;;;;;;;;;;;;;;;;;;5091538;28;1622;-42
2023/02/18 10:28:11;;;;;;;;;;;;;;;;;;5091546;28;1515;-42
2023/02/18 10:30:40;;;;;;;;;;;;;;;;;;5090820;28;1922;-41
2023/02/18 10:33:27;;;;;;;;;;;;;;;;;;5091705;28;2192;-42
2023/02/18 10:36:13;;;;;;;;;;;;;;;;;;5091209;28;2120;-39
2023/02/18 10:38:58;;;;;;;;;;;;;;;;;;5091367;28;2010;-39
2023/02/18 10:41:25;;;;;;;;;;;;;;;;;;5091502;28;2096;-45
2023/02/18 10:43:53;;;;;;;;;;;;;;;;;;5087667;28;1973;-42
2023/02/18 10:46:39;;;;;;;;;;;;;;;;;;5071615;28;1952;-39
2023/02/18 10:49:07;;;;;;;;;;;;;;;;;;5071167;28;1943;-41
2023/02/18 10:51:34;;;;;;;;;;;;;;;;;;5071362;28;1517;-44
2023/02/18 10:54:02;;;;;;;;;;;;;;;;;;5071199;28;1751;-40
2023/02/18 10:56:40;;;;;;;;;;;;;;;;;;5053508;28;1900;-41
2023/02/18 10:59:21;;;;;;;;;;;;;;;;;;5053397;28;1900;-42
2023/02/18 11:01:58;;;;;;;;;;;;;;;;;;5071088;28;1955;-40
2023/02/18 11:04:39;;;;;;;;;;;;;;;;;;5072200;28;2150;-41
2023/02/18 11:07:29;;;;;;;;;;;;;;;;;;5091207;28;1742;-39
2023/02/18 11:09:58;;;;;;;;;;;;;;;;;;5083450;28;1646;-40
2023/02/18 11:12:49;;;;;;;;;;;;;;;;;;5091235;28;1854;-41
2023/02/18 11:15:18;;;;;;;;;;;;;;;;;;5083171;28;1885;-38
2023/02/18 11:17:46;;;;;;;;;;;;;;;;;;5091092;28;2001;-40
2023/02/18 11:20:17;;;;;;;;;;;;;;;;;;5091048;28;2156;-41
2023/02/18 11:22:44;;;;;;;;;;;;;;;;;;5090995;28;1971;-39
2023/02/18 11:25:22;;;;;;;;;;;;;;;;;;5091020;28;1778;-39
2023/02/18 11:27:57;;;;;;;;;;;;;;;;;;5090772;28;1647;-41
2023/02/18 11:30:33;;;;;;;;;;;;;;;;;;5090757;28;1671;-39
2023/02/18 11:33:39;;;;;;;;;;;;;;;;;;5091019;28;1439;-39
2023/02/18 11:36:21;;;;;;;;;;;;;;;;;;5028403;28;1648;-40
2023/02/18 11:38:51;;;;;;;;;;;;;;;;;;5028504;28;2097;-40
2023/02/18 11:41:38;;;;;;;;;;;;;;;;;;5067779;28;1262;-42
2023/02/18 11:44:07;;;;;;;;;;;;;;;;;;5094247;28;2008;-42
2023/02/18 11:46:34;;;;;;;;;;;;;;;;;;5094704;28;1379;-39
2023/02/18 11:49:32;;;;;;;;;;;;;;;;;;5094572;28;2203;-43
2023/02/18 11:52:17;;;;;;;;;;;;;;;;;;5082774;28;1429;-40
2023/02/18 11:55:05;;;;;;;;;;;;;;;;;;5094330;28;1509;-44
2023/02/18 11:57:33;;;;;;;;;;;;;;;;;;5094747;28;1649;-44
2023/02/18 12:00:01;;;;;;;;;;;;;;;;;;5094530;28;1992;-39
2023/02/18 12:02:36;;;;;;;;;;;;;;;;;;5094501;28;2142;-43
2023/02/18 12:05:22;;;;;;;;;;;;;;;;;;5087721;28;1980;-39
2023/02/18 12:07:51;;;;;;;;;;;;;;;;;;5073505;28;1965;-44
2023/02/18 12:10:31;;;;;;;;;;;;;;;;;;5073813;28;2000;-42
2023/02/18 12:13:27;;;;;;;;;;;;;;;;;;5073200;28;2364;-39
2023/02/18 12:16:13;;;;;;;;;;;;;;;;;;5064984;28;1837;-40
2023/02/18 12:18:40;;;;;;;;;;;;;;;;;;5055965;28;2119;-41
2023/02/18 12:21:34;;;;;;;;;;;;;;;;;;5073874;28;1639;-39
2023/02/18 12:24:07;;;;;;;;;;;;;;;;;;5073657;28;2230;-39
2023/02/18 12:26:37;;;;;;;;;;;;;;;;;;5073829;28;1804;-43
2023/02/18 12:29:15;;;;;;;;;;;;;;;;;;5055838;28;2036;-41
2023/02/18 12:32:15;;;;;;;;;;;;;;;;;;5073316;28;1697;-44
2023/02/18 12:34:58;;;;;;;;;;;;;;;;;;5061092;28;2156;-39
2023/02/18 12:37:44;;;;;;;;;;;;;;;;;;5073739;28;1737;-43
2023/02/18 12:40:11;;;;;;;;;;;;;;;;;;5073279;28;1702;-42
2023/02/18 12:42:53;;;;;;;;;;;;;;;;;;5073343;28;2046;-40
2023/02/18 12:45:30;;;;;;;;;;;;;;;;;;5076875;28;1815;-41
2023/02/18 12:48:33;;;;;;;;;;;;;;;;;;5093403;28;1637;-40
2023/02/18 12:51:18;;;;;;;;;;;;;;;;;;5010788;28;1582;-39
2023/02/18 12:53:55;;;;;;;;;;;;;;;;;;5087020;28;1960;-39
2023/02/18 12:56:39;;;;;;;;;;;;;;;;;;5093255;28;1728;-43
2023/02/18 12:59:19;;;;;;;;;;;;;;;;;;5093255;28;2155;-40
2023/02/18 13:01:58;;;;;;;;;;;;;;;;;;5093142;28;1684;-43
2023/02/18 13:04:52;;;;;;;;;;;;;;;;;;5091559;28;1964;-39
2023/02/18 13:07:30;;;;;;;;;;;;;;;;;;5042644;28;1786;-40
2023/02/18 13:10:03;;;;;;;;;;;;;;;;;;5054707;28;1729;-41
2023/02/18 13:12:39;;;;;;;;;;;;;;;;;;5072684;28;1907;-44
2023/02/18 13:15:12;;;;;;;;;;;;;;;;;;5054766;28;2347;-41
2023/02/18 13:17:41;;;;;;;;;;;;;;;;;;5072543;28;1768;-40
2023/02/18 13:20:21;;;;;;;;;;;;;;;;;;5072508;28;2077;-40
2023/02/18 13:22:49;;;;;;;;;;;;;;;;;;5072415;28;1917;-44
2023/02/18 13:25:17;;;;;;;;;;;;;;;;;;5072589;28;1587;-40
2023/02/18 13:27:44;;;;;;;;;;;;;;;;;;5072193;28;1908;-39
2023/02/18 13:30:18;;;;;;;;;;;;;;;;;;5072333;28;1793;-42
2023/02/18 13:32:51;;;;;;;;;;;;;;;;;;5072051;28;1991;-43
2023/02/18 13:35:24;;;;;;;;;;;;;;;;;;5072052;28;1947;-44
2023/02/18 13:37:51;;;;;;;;;;;;;;;;;;5072121;28;1721;-43
2023/02/18 13:40:22;;;;;;;;;;;;;;;;;;5072117;28;1777;-43
2023/02/18 13:42:52;;;;;;;;;;;;;;;;;;5072114;28;2134;-42
2023/02/18 13:45:25;;;;;;;;;;;;;;;;;;5072057;28;2002;-42
2023/02/18 13:47:53;;;;;;;;;;;;;;;;;;5071964;28;1864;-42
2023/02/18 13:50:27;;;;;;;;;;;;;;;;;;5071829;28;2006;-40
2023/02/18 13:53:06;;;;;;;;;;;;;;;;;;5071775;28;2251;-39
2023/02/18 13:55:33;;;;;;;;;;;;;;;;;;5072034;28;2063;-43
2023/02/18 13:58:00;;;;;;;;;;;;;;;;;;5071715;28;1848;-40
2023/02/18 14:00:35;;;;;;;;;;;;;;;;;;5071714;28;2135;-40
2023/02/18 14:03:18;;;;;;;;;;;;;;;;;;5070239;28;1910;-39
2023/02/18 14:05:46;;;;;;;;;;;;;;;;;;5077889;28;1607;-43
2023/02/18 14:08:14;;;;;;;;;;;;;;;;;;5071714;28;2060;-40
2023/02/18 14:11:01;;;;;;;;;;;;;;;;;;5071275;28;2088;-41
2023/02/18 14:13:47;;;;;;;;;;;;;;;;;;5071401;28;2068;-42
2023/02/18 14:16:15;;;;;;;;;;;;;;;;;;5071375;28;1776;-40
2023/02/18 14:18:42;;;;;;;;;;;;;;;;;;5071298;28;2380;-39
2023/02/18 14:21:12;;;;;;;;;;;;;;;;;;5071178;28;1722;-41
2023/02/18 14:23:43;;;;;;;;;;;;;;;;;;5071182;28;2047;-46
2023/02/18 14:26:13;;;;;;;;;;;;;;;;;;5070912;28;1928;-41
2023/02/18 14:28:44;;;;;;;;;;;;;;;;;;5071089;28;2154;-40
2023/02/18 14:31:13;;;;;;;;;;;;;;;;;;5071146;28;2007;-39
2023/02/18 14:33:47;;;;;;;;;;;;;;;;;;5071128;28;2142;-41
2023/02/18 14:36:14;;;;;;;;;;;;;;;;;;5051075;28;1825;-44
2023/02/18 14:38:48;;;;;;;;;;;;;;;;;;5050889;28;2055;-41
2023/02/18 14:41:39;;;;;;;;;;;;;;;;;;5051069;28;1424;-45
2023/02/18 14:44:38;;;;;;;;;;;;;;;;;;5058563;28;1914;-42
2023/02/18 14:47:14;;;;;;;;;;;;;;;;;;5028718;28;1389;-40
2023/02/18 14:49:43;;;;;;;;;;;;;;;;;;5051097;28;1839;-41
2023/02/18 14:52:27;;;;;;;;;;;;;;;;;;5050700;28;1885;-41
2023/02/18 14:54:55;;;;;;;;;;;;;;;;;;5050858;28;2017;-38
2023/02/18 14:57:29;;;;;;;;;;;;;;;;;;5051193;28;2149;-39
2023/02/18 14:59:58;;;;;;;;;;;;;;;;;;5050929;28;2112;-40
2023/02/18 15:02:29;;;;;;;;;;;;;;;;;;5050744;28;1814;-39
2023/02/18 15:05:32;;;;;;;;;;;;;;;;;;5050506;28;1960;-44
2023/02/18 15:08:02;;;;;;;;;;;;;;;;;;4990494;28;1759;-41
2023/02/18 15:10:37;;;;;;;;;;;;;;;;;;5042652;28;1992;-41
2023/02/18 15:13:07;;;;;;;;;;;;;;;;;;5050860;28;1754;-39
2023/02/18 15:15:35;;;;;;;;;;;;;;;;;;5051015;28;1546;-40
2023/02/18 15:18:02;;;;;;;;;;;;;;;;;;5054763;28;1838;-44
2023/02/18 15:20:33;;;;;;;;;;;;;;;;;;5055013;28;1827;-43
2023/02/18 15:23:01;;;;;;;;;;;;;;;;;;5054682;28;1916;-44
2023/02/18 15:25:28;;;;;;;;;;;;;;;;;;5054857;28;1905;-39
2023/02/18 15:27:55;;;;;;;;;;;;;;;;;;5054461;28;1825;-38
2023/02/18 15:30:30;;;;;;;;;;;;;;;;;;5054599;28;1837;-41
2023/02/18 15:32:58;;;;;;;;;;;;;;;;;;5054539;28;1633;-43
2023/02/18 15:35:31;;;;;;;;;;;;;;;;;;5087765;28;2035;-39
2023/02/18 15:38:00;;;;;;;;;;;;;;;;;;5094679;28;1708;-39
2023/02/18 15:40:32;;;;;;;;;;;;;;;;;;5094854;28;2053;-41
2023/02/18 15:43:01;;;;;;;;;;;;;;;;;;5094675;28;1589;-41
2023/02/18 15:45:33;;;;;;;;;;;;;;;;;;5094873;28;1887;-39
2023/02/18 15:48:01;;;;;;;;;;;;;;;;;;5094603;28;1732;-41
2023/02/18 15:50:31;;;;;;;;;;;;;;;;;;5094302;28;1803;-41
2023/02/18 15:52:59;;;;;;;;;;;;;;;;;;5094470;28;1848;-40
2023/02/18 15:55:26;;;;;;;;;;;;;;;;;;5094258;28;1844;-44
2023/02/18 15:57:53;;;;;;;;;;;;;;;;;;5089434;28;1693;-39
2023/02/18 16:00:25;;;;;;;;;;;;;;;;;;5074011;28;1615;-41
2023/02/18 16:02:54;;;;;;;;;;;;;;;;;;5085454;28;2083;-39
2023/02/18 16:05:26;;;;;;;;;;;;;;;;;;5084920;28;2070;-43
2023/02/18 16:08:14;;;;;;;;;;;;;;;;;;5073998;28;2084;-42
2023/02/18 16:10:44;;;;;;;;;;;;;;;;;;5073854;28;1479;-39
2023/02/18 16:13:13;;;;;;;;;;;;;;;;;;5090241;28;2012;-39
2023/02/18 16:15:41;;;;;;;;;;;;;;;;;;5093931;28;1327;-39
2023/02/18 16:18:27;;;;;;;;;;;;;;;;;;5094160;28;2025;-42
2023/02/18 16:21:00;;;;;;;;;;;;;;;;;;5093920;28;1492;-41
2023/02/18 16:23:58;;;;;;;;;;;;;;;;;;5093886;28;2096;-39
2023/02/18 16:26:40;;;;;;;;;;;;;;;;;;5093104;28;1790;-40
2023/02/18 16:29:11;;;;;;;;;;;;;;;;;;5051224;28;9778;-40
2023/02/18 16:31:40;;;;;;;;;;;;;;;;;;5073566;28;1695;-40
2023/02/18 16:34:07;;;;;;;;;;;;;;;;;;5073608;28;1734;-39
2023/02/18 16:36:35;;;;;;;;;;;;;;;;;;5073356;28;1941;-40
2023/02/18 16:39:02;;;;;;;;;;;;;;;;;;5073422;28;2165;-42
2023/02/18 16:41:29;;;;;;;;;;;;;;;;;;5073216;28;2143;-44
2023/02/18 16:43:56;;;;;;;;;;;;;;;;;;5073091;28;1915;-40
2023/02/18 16:46:24;;;;;;;;;;;;;;;;;;5073297;28;1527;-39
2023/02/18 16:48:56;;;;;;;;;;;;;;;;;;5072961;28;1964;-40
2023/02/18 16:51:24;;;;;;;;;;;;;;;;;;5055951;28;2141;-43
2023/02/18 16:53:51;;;;;;;;;;;;;;;;;;5073026;28;1567;-43
2023/02/18 16:56:24;;;;;;;;;;;;;;;;;;5072956;28;1844;-41
2023/02/18 16:58:51;;;;;;;;;;;;;;;;;;5072548;28;1569;-44
2023/02/18 17:01:29;;;;;;;;;;;;;;;;;;5072723;28;1690;-41
2023/02/18 17:03:59;;;;;;;;;;;;;;;;;;5072893;28;1915;-43
2023/02/18 17:06:27;;;;;;;;;;;;;;;;;;5090956;28;1848;-39
2023/02/18 17:08:55;;;;;;;;;;;;;;;;;;5092957;28;2092;-41
2023/02/18 17:11:28;;;;;;;;;;;;;;;;;;5092980;28;1371;-43
2023/02/18 17:13:59;;;;;;;;;;;;;;;;;;5072599;28;1726;-41
2023/02/18 17:16:26;;;;;;;;;;;;;;;;;;5072756;28;1745;-40
2023/02/18 17:18:54;;;;;;;;;;;;;;;;;;5072450;28;1812;-40
2023/02/18 17:21:23;;;;;;;;;;;;;;;;;;5072581;28;1598;-38
2023/02/18 17:23:51;;;;;;;;;;;;;;;;;;5072477;28;1977;-43
2023/02/18 17:26:23;;;;;;;;;;;;;;;;;;5072213;28;1809;-41
2023/02/18 17:28:51;;;;;;;;;;;;;;;;;;5072365;28;1828;-44
2023/02/18 17:31:21;;;;;;;;;;;;;;;;;;5072247;28;2173;-41